sensor_id;sensor_type;location;lat;lon;timestamp;pressure;altitude;pressure_sealevel;temperature;humidity
8160;BME280;27404;52.398;9.646;2023-04-28T00:01:15;100986.78;;;5.64;98.85
8160;BME280;27404;52.398;9.646;2023-04-28T00:03:41;100979.13;;;5.68;99.77
8160;BME280;27404;52.398;9.646;2023-04-28T00:06:07;100974.50;;;5.69;99.61
8160;BME280;27404;52.398;9.646;2023-04-28T00:08:32;100980.19;;;5.74;99.79
8160;BME280;27404;52.398;9.646;2023-04-28T00:10:58;100977.03;;;5.70;99.71
8160;BME280;27404;52.398;9.646;2023-04-28T00:13:24;100974.78;;;5.74;99.93
8160;BME280;27404;52.398;9.646;2023-04-28T00:15:49;100983.81;;;5.81;98.67
8160;BME280;27404;52.398;9.646;2023-04-28T00:18:17;100978.38;;;5.81;98.90
8160;BME280;27404;52.398;9.646;2023-04-28T00:20:43;100972.31;;;5.79;98.27
8160;BME280;27404;52.398;9.646;2023-04-28T00:23:08;100970.00;;;5.76;98.73
8160;BME280;27404;52.398;9.646;2023-04-28T00:25:34;100960.81;;;5.77;98.45
8160;BME280;27404;52.398;9.646;2023-04-28T00:27:59;100958.34;;;5.82;98.92
8160;BME280;27404;52.398;9.646;2023-04-28T00:30:26;100956.53;;;5.89;98.07
8160;BME280;27404;52.398;9.646;2023-04-28T00:32:51;100961.19;;;5.96;97.71
8160;BME280;27404;52.398;9.646;2023-04-28T00:35:16;100952.34;;;5.87;97.88
8160;BME280;27404;52.398;9.646;2023-04-28T00:37:42;100947.19;;;5.92;97.57
8160;BME280;27404;52.398;9.646;2023-04-28T00:40:08;100944.88;;;5.89;97.67
8160;BME280;27404;52.398;9.646;2023-04-28T00:42:33;100943.88;;;5.97;98.61
8160;BME280;27404;52.398;9.646;2023-04-28T00:44:59;100940.63;;;6.08;97.58
8160;BME280;27404;52.398;9.646;2023-04-28T00:47:31;100935.22;;;6.08;98.51
8160;BME280;27404;52.398;9.646;2023-04-28T00:49:57;100933.31;;;6.08;98.22
8160;BME280;27404;52.398;9.646;2023-04-28T00:52:23;100932.75;;;6.13;98.60
8160;BME280;27404;52.398;9.646;2023-04-28T00:54:49;100926.47;;;6.13;98.63
8160;BME280;27404;52.398;9.646;2023-04-28T00:57:14;100929.56;;;6.10;98.04
8160;BME280;27404;52.398;9.646;2023-04-28T00:59:40;100924.59;;;6.13;97.85
8160;BME280;27404;52.398;9.646;2023-04-28T01:02:05;100926.22;;;6.07;97.94
8160;BME280;27404;52.398;9.646;2023-04-28T01:04:32;100925.88;;;6.17;97.40
8160;BME280;27404;52.398;9.646;2023-04-28T01:06:59;100919.19;;;6.20;97.02
8160;BME280;27404;52.398;9.646;2023-04-28T01:09:25;100926.53;;;6.19;96.47
8160;BME280;27404;52.398;9.646;2023-04-28T01:11:50;100917.34;;;6.20;97.49
8160;BME280;27404;52.398;9.646;2023-04-28T01:14:15;100912.94;;;6.19;96.10
8160;BME280;27404;52.398;9.646;2023-04-28T01:16:41;100910.66;;;6.23;97.12
8160;BME280;27404;52.398;9.646;2023-04-28T01:19:11;100902.09;;;6.19;96.22
8160;BME280;27404;52.398;9.646;2023-04-28T01:21:40;100902.28;;;6.18;97.31
8160;BME280;27404;52.398;9.646;2023-04-28T01:24:06;100903.53;;;6.15;95.79
8160;BME280;27404;52.398;9.646;2023-04-28T01:26:31;100907.84;;;6.10;96.42
8160;BME280;27404;52.398;9.646;2023-04-28T01:28:56;100901.75;;;6.01;96.76
8160;BME280;27404;52.398;9.646;2023-04-28T01:31:22;100905.19;;;6.16;96.19
8160;BME280;27404;52.398;9.646;2023-04-28T01:33:47;100904.31;;;6.09;96.51
8160;BME280;27404;52.398;9.646;2023-04-28T01:36:13;100893.88;;;6.13;96.51
8160;BME280;27404;52.398;9.646;2023-04-28T01:38:38;100898.34;;;6.27;97.35
8160;BME280;27404;52.398;9.646;2023-04-28T01:41:04;100895.63;;;6.20;97.43
8160;BME280;27404;52.398;9.646;2023-04-28T01:43:29;100896.69;;;6.26;97.95
8160;BME280;27404;52.398;9.646;2023-04-28T01:45:55;100890.38;;;6.19;98.56
8160;BME280;27404;52.398;9.646;2023-04-28T01:48:20;100889.78;;;6.24;98.45
8160;BME280;27404;52.398;9.646;2023-04-28T01:50:45;100884.13;;;6.18;99.25
8160;BME280;27404;52.398;9.646;2023-04-28T01:53:11;100876.13;;;6.10;100.00
8160;BME280;27404;52.398;9.646;2023-04-28T01:55:37;100875.91;;;6.05;100.00
8160;BME280;27404;52.398;9.646;2023-04-28T01:58:03;100863.78;;;6.07;99.99
8160;BME280;27404;52.398;9.646;2023-04-28T02:00:28;100860.25;;;6.07;99.12
8160;BME280;27404;52.398;9.646;2023-04-28T02:02:54;100851.91;;;6.08;99.63
8160;BME280;27404;52.398;9.646;2023-04-28T02:05:19;100855.41;;;6.02;98.82
8160;BME280;27404;52.398;9.646;2023-04-28T02:07:45;100848.13;;;6.03;99.21
8160;BME280;27404;52.398;9.646;2023-04-28T02:10:11;100851.72;;;6.10;99.26
8160;BME280;27404;52.398;9.646;2023-04-28T02:12:36;100848.16;;;6.10;99.32
8160;BME280;27404;52.398;9.646;2023-04-28T02:15:02;100841.66;;;6.04;100.00
8160;BME280;27404;52.398;9.646;2023-04-28T02:17:30;100847.47;;;6.01;99.92
8160;BME280;27404;52.398;9.646;2023-04-28T02:19:56;100852.16;;;5.85;99.68
8160;BME280;27404;52.398;9.646;2023-04-28T02:22:22;100844.06;;;5.92;100.00
8160;BME280;27404;52.398;9.646;2023-04-28T02:24:47;100843.47;;;5.97;100.00
8160;BME280;27404;52.398;9.646;2023-04-28T02:27:13;100845.28;;;5.89;100.00
8160;BME280;27404;52.398;9.646;2023-04-28T02:29:38;100834.91;;;6.00;100.00
8160;BME280;27404;52.398;9.646;2023-04-28T02:32:04;100841.16;;;5.93;100.00
8160;BME280;27404;52.398;9.646;2023-04-28T02:34:29;100830.84;;;5.82;100.00
8160;BME280;27404;52.398;9.646;2023-04-28T02:36:55;100831.88;;;5.81;100.00
8160;BME280;27404;52.398;9.646;2023-04-28T02:39:20;100814.56;;;5.82;100.00
8160;BME280;27404;52.398;9.646;2023-04-28T02:41:49;100822.72;;;5.82;100.00
8160;BME280;27404;52.398;9.646;2023-04-28T02:44:15;100810.88;;;5.90;100.00
8160;BME280;27404;52.398;9.646;2023-04-28T02:46:41;100807.06;;;5.84;100.00
8160;BME280;27404;52.398;9.646;2023-04-28T02:49:06;100806.91;;;5.92;100.00
8160;BME280;27404;52.398;9.646;2023-04-28T02:51:32;100806.91;;;5.92;100.00
8160;BME280;27404;52.398;9.646;2023-04-28T02:53:57;100798.78;;;5.92;100.00
8160;BME280;27404;52.398;9.646;2023-04-28T02:56:22;100801.69;;;5.91;100.00
8160;BME280;27404;52.398;9.646;2023-04-28T02:58:48;100806.47;;;5.89;100.00
8160;BME280;27404;52.398;9.646;2023-04-28T03:01:13;100797.06;;;5.85;100.00
8160;BME280;27404;52.398;9.646;2023-04-28T03:03:39;100790.38;;;5.87;100.00
8160;BME280;27404;52.398;9.646;2023-04-28T03:06:04;100789.97;;;5.84;100.00
8160;BME280;27404;52.398;9.646;2023-04-28T03:08:30;100792.72;;;5.90;100.00
8160;BME280;27404;52.398;9.646;2023-04-28T03:10:55;100785.59;;;5.89;100.00
8160;BME280;27404;52.398;9.646;2023-04-28T03:13:21;100781.84;;;5.90;100.00
8160;BME280;27404;52.398;9.646;2023-04-28T03:15:46;100774.31;;;5.86;100.00
8160;BME280;27404;52.398;9.646;2023-04-28T03:18:12;100779.34;;;5.89;100.00
8160;BME280;27404;52.398;9.646;2023-04-28T03:20:37;100769.72;;;5.80;100.00
8160;BME280;27404;52.398;9.646;2023-04-28T03:23:03;100767.19;;;5.78;100.00
8160;BME280;27404;52.398;9.646;2023-04-28T03:25:28;100770.28;;;5.75;100.00
8160;BME280;27404;52.398;9.646;2023-04-28T03:27:54;100775.94;;;5.73;100.00
8160;BME280;27404;52.398;9.646;2023-04-28T03:30:20;100776.97;;;5.72;100.00
8160;BME280;27404;52.398;9.646;2023-04-28T03:32:45;100761.91;;;5.70;100.00
8160;BME280;27404;52.398;9.646;2023-04-28T03:35:11;100763.81;;;5.76;100.00
8160;BME280;27404;52.398;9.646;2023-04-28T03:37:36;100762.59;;;5.78;100.00
8160;BME280;27404;52.398;9.646;2023-04-28T03:40:01;100759.88;;;5.78;100.00
8160;BME280;27404;52.398;9.646;2023-04-28T03:42:27;100752.75;;;5.71;100.00
8160;BME280;27404;52.398;9.646;2023-04-28T03:44:52;100740.66;;;5.73;100.00
8160;BME280;27404;52.398;9.646;2023-04-28T03:47:18;100741.50;;;5.74;100.00
8160;BME280;27404;52.398;9.646;2023-04-28T03:49:43;100742.53;;;5.73;100.00
8160;BME280;27404;52.398;9.646;2023-04-28T03:52:09;100735.41;;;5.65;100.00
8160;BME280;27404;52.398;9.646;2023-04-28T03:54:34;100736.19;;;5.59;100.00
8160;BME280;27404;52.398;9.646;2023-04-28T03:57:00;100741.44;;;5.60;100.00
8160;BME280;27404;52.398;9.646;2023-04-28T03:59:26;100725.63;;;5.71;100.00
8160;BME280;27404;52.398;9.646;2023-04-28T04:01:51;100727.44;;;5.63;100.00
8160;BME280;27404;52.398;9.646;2023-04-28T04:04:17;100730.59;;;5.60;100.00
8160;BME280;27404;52.398;9.646;2023-04-28T04:06:42;100725.81;;;5.62;100.00
8160;BME280;27404;52.398;9.646;2023-04-28T04:09:08;100725.03;;;5.82;100.00
8160;BME280;27404;52.398;9.646;2023-04-28T04:11:34;100718.34;;;5.78;100.00
8160;BME280;27404;52.398;9.646;2023-04-28T04:13:59;100724.38;;;5.73;100.00
8160;BME280;27404;52.398;9.646;2023-04-28T04:16:25;100715.22;;;5.81;100.00
8160;BME280;27404;52.398;9.646;2023-04-28T04:18:50;100716.72;;;5.84;100.00
8160;BME280;27404;52.398;9.646;2023-04-28T04:21:16;100712.56;;;5.88;100.00
8160;BME280;27404;52.398;9.646;2023-04-28T04:23:41;100712.78;;;5.93;100.00
8160;BME280;27404;52.398;9.646;2023-04-28T04:26:07;100715.06;;;5.89;100.00
8160;BME280;27404;52.398;9.646;2023-04-28T04:28:32;100712.97;;;5.85;100.00
8160;BME280;27404;52.398;9.646;2023-04-28T04:30:58;100703.81;;;5.92;100.00
8160;BME280;27404;52.398;9.646;2023-04-28T04:33:23;100710.75;;;6.02;100.00
8160;BME280;27404;52.398;9.646;2023-04-28T04:35:49;100698.25;;;6.07;100.00
8160;BME280;27404;52.398;9.646;2023-04-28T04:38:14;100703.06;;;6.12;100.00
8160;BME280;27404;52.398;9.646;2023-04-28T04:40:40;100701.41;;;6.18;100.00
8160;BME280;27404;52.398;9.646;2023-04-28T04:43:05;100699.94;;;6.22;100.00
8160;BME280;27404;52.398;9.646;2023-04-28T04:45:31;100697.06;;;6.30;100.00
8160;BME280;27404;52.398;9.646;2023-04-28T04:47:57;100700.81;;;6.36;100.00
8160;BME280;27404;52.398;9.646;2023-04-28T04:50:23;100697.06;;;6.37;100.00
8160;BME280;27404;52.398;9.646;2023-04-28T04:52:48;100699.34;;;6.40;100.00
8160;BME280;27404;52.398;9.646;2023-04-28T04:55:14;100698.31;;;6.41;100.00
8160;BME280;27404;52.398;9.646;2023-04-28T04:57:39;100694.13;;;6.45;100.00
8160;BME280;27404;52.398;9.646;2023-04-28T05:00:05;100701.06;;;6.55;99.97
8160;BME280;27404;52.398;9.646;2023-04-28T05:02:31;100700.22;;;6.61;100.00
8160;BME280;27404;52.398;9.646;2023-04-28T05:04:56;100691.88;;;6.69;99.64
8160;BME280;27404;52.398;9.646;2023-04-28T05:07:22;100686.03;;;6.72;98.50
8160;BME280;27404;52.398;9.646;2023-04-28T05:09:47;100692.50;;;6.78;99.06
8160;BME280;27404;52.398;9.646;2023-04-28T05:12:13;100694.59;;;6.82;97.84
8160;BME280;27404;52.398;9.646;2023-04-28T05:14:38;100689.56;;;6.93;97.86
8160;BME280;27404;52.398;9.646;2023-04-28T05:17:03;100687.25;;;7.03;96.51
8160;BME280;27404;52.398;9.646;2023-04-28T05:19:29;100687.44;;;7.08;96.76
8160;BME280;27404;52.398;9.646;2023-04-28T05:21:54;100689.13;;;7.09;96.67
8160;BME280;27404;52.398;9.646;2023-04-28T05:24:21;100679.69;;;7.19;96.00
8160;BME280;27404;52.398;9.646;2023-04-28T05:26:51;100682.66;;;7.17;96.27
8160;BME280;27404;52.398;9.646;2023-04-28T05:29:18;100682.16;;;7.40;95.72
8160;BME280;27404;52.398;9.646;2023-04-28T05:31:44;100681.53;;;7.32;95.45
8160;BME280;27404;52.398;9.646;2023-04-28T05:34:09;100682.59;;;7.37;95.07
8160;BME280;27404;52.398;9.646;2023-04-28T05:36:35;100669.53;;;7.60;94.57
8160;BME280;27404;52.398;9.646;2023-04-28T05:39:01;100679.59;;;7.59;94.27
8160;BME280;27404;52.398;9.646;2023-04-28T05:41:26;100664.69;;;7.68;92.93
8160;BME280;27404;52.398;9.646;2023-04-28T05:43:52;100670.56;;;7.72;94.66
8160;BME280;27404;52.398;9.646;2023-04-28T05:46:17;100665.06;;;7.79;92.52
8160;BME280;27404;52.398;9.646;2023-04-28T05:48:43;100664.00;;;7.80;90.85
8160;BME280;27404;52.398;9.646;2023-04-28T05:51:08;100654.31;;;7.97;92.10
8160;BME280;27404;52.398;9.646;2023-04-28T05:53:33;100665.56;;;8.08;92.18
8160;BME280;27404;52.398;9.646;2023-04-28T05:55:59;100654.16;;;8.24;90.32
8160;BME280;27404;52.398;9.646;2023-04-28T05:58:25;100664.28;;;8.42;90.14
8160;BME280;27404;52.398;9.646;2023-04-28T06:00:50;100659.50;;;8.70;90.76
8160;BME280;27404;52.398;9.646;2023-04-28T06:03:15;100666.78;;;8.95;87.09
8160;BME280;27404;52.398;9.646;2023-04-28T06:05:43;100663.13;;;9.08;84.75
8160;BME280;27404;52.398;9.646;2023-04-28T06:08:09;100661.06;;;9.03;84.50
8160;BME280;27404;52.398;9.646;2023-04-28T06:10:35;100658.59;;;9.57;84.33
8160;BME280;27404;52.398;9.646;2023-04-28T06:13:00;100650.75;;;9.61;81.95
8160;BME280;27404;52.398;9.646;2023-04-28T06:15:29;100649.47;;;9.82;82.59
8160;BME280;27404;52.398;9.646;2023-04-28T06:17:54;100652.84;;;10.38;77.04
8160;BME280;27404;52.398;9.646;2023-04-28T06:20:20;100648.22;;;11.05;76.26
8160;BME280;27404;52.398;9.646;2023-04-28T06:22:45;100649.84;;;10.82;75.47
8160;BME280;27404;52.398;9.646;2023-04-28T06:25:11;100647.59;;;10.79;75.73
8160;BME280;27404;52.398;9.646;2023-04-28T06:27:36;100646.88;;;10.48;74.09
8160;BME280;27404;52.398;9.646;2023-04-28T06:30:02;100650.56;;;10.23;76.00
8160;BME280;27404;52.398;9.646;2023-04-28T06:32:28;100656.00;;;10.42;76.72
8160;BME280;27404;52.398;9.646;2023-04-28T06:34:53;100653.41;;;10.59;75.76
8160;BME280;27404;52.398;9.646;2023-04-28T06:37:19;100651.53;;;10.60;75.61
8160;BME280;27404;52.398;9.646;2023-04-28T06:39:44;100662.72;;;10.94;74.27
8160;BME280;27404;52.398;9.646;2023-04-28T06:42:09;100656.63;;;11.04;74.72
8160;BME280;27404;52.398;9.646;2023-04-28T06:44:35;100671.84;;;11.23;72.44
8160;BME280;27404;52.398;9.646;2023-04-28T06:47:01;100665.66;;;11.28;72.44
8160;BME280;27404;52.398;9.646;2023-04-28T06:49:27;100657.84;;;11.73;71.60
8160;BME280;27404;52.398;9.646;2023-04-28T06:51:52;100665.97;;;11.96;69.07
8160;BME280;27404;52.398;9.646;2023-04-28T06:54:18;100650.94;;;12.11;67.64
8160;BME280;27404;52.398;9.646;2023-04-28T06:56:43;100649.25;;;12.39;68.01
8160;BME280;27404;52.398;9.646;2023-04-28T06:59:09;100639.69;;;12.76;65.93
8160;BME280;27404;52.398;9.646;2023-04-28T07:01:34;100638.78;;;12.87;65.19
8160;BME280;27404;52.398;9.646;2023-04-28T07:04:00;100644.03;;;13.11;65.41
8160;BME280;27404;52.398;9.646;2023-04-28T07:06:25;100639.66;;;13.32;64.96
8160;BME280;27404;52.398;9.646;2023-04-28T07:08:52;100632.25;;;13.99;63.52
8160;BME280;27404;52.398;9.646;2023-04-28T07:11:17;100632.66;;;14.41;61.13
8160;BME280;27404;52.398;9.646;2023-04-28T07:13:43;100636.19;;;14.09;59.85
8160;BME280;27404;52.398;9.646;2023-04-28T07:16:13;100639.06;;;13.69;60.02
8160;BME280;27404;52.398;9.646;2023-04-28T07:18:39;100628.66;;;13.71;61.04
8160;BME280;27404;52.398;9.646;2023-04-28T07:21:04;100630.34;;;13.50;63.43
8160;BME280;27404;52.398;9.646;2023-04-28T07:23:30;100633.09;;;12.94;62.34
8160;BME280;27404;52.398;9.646;2023-04-28T07:25:56;100624.81;;;12.71;63.49
8160;BME280;27404;52.398;9.646;2023-04-28T07:28:22;100631.25;;;12.99;64.64
8160;BME280;27404;52.398;9.646;2023-04-28T07:30:47;100632.06;;;13.56;63.03
8160;BME280;27404;52.398;9.646;2023-04-28T07:33:13;100633.81;;;13.68;63.50
8160;BME280;27404;52.398;9.646;2023-04-28T07:35:38;100631.66;;;13.97;62.46
8160;BME280;27404;52.398;9.646;2023-04-28T07:38:04;100620.38;;;13.94;61.97
8160;BME280;27404;52.398;9.646;2023-04-28T07:40:30;100630.34;;;13.50;60.76
8160;BME280;27404;52.398;9.646;2023-04-28T07:42:55;100625.06;;;13.71;62.07
8160;BME280;27404;52.398;9.646;2023-04-28T07:45:21;100626.91;;;14.15;60.97
8160;BME280;27404;52.398;9.646;2023-04-28T07:47:47;100626.47;;;14.61;60.54
8160;BME280;27404;52.398;9.646;2023-04-28T07:50:12;100624.59;;;14.34;59.50
8160;BME280;27404;52.398;9.646;2023-04-28T07:52:37;100621.72;;;14.18;60.89
8160;BME280;27404;52.398;9.646;2023-04-28T07:55:04;100615.97;;;13.92;59.77
8160;BME280;27404;52.398;9.646;2023-04-28T07:57:29;100617.34;;;13.95;61.02
8160;BME280;27404;52.398;9.646;2023-04-28T07:59:55;100613.91;;;14.05;62.16
8160;BME280;27404;52.398;9.646;2023-04-28T08:02:21;100612.31;;;14.42;60.83
8160;BME280;27404;52.398;9.646;2023-04-28T08:04:46;100608.91;;;14.29;61.44
8160;BME280;27404;52.398;9.646;2023-04-28T08:07:12;100608.09;;;14.34;60.43
8160;BME280;27404;52.398;9.646;2023-04-28T08:09:38;100595.66;;;14.59;60.16
8160;BME280;27404;52.398;9.646;2023-04-28T08:12:05;100597.88;;;13.97;59.72
8160;BME280;27404;52.398;9.646;2023-04-28T08:14:30;100591.38;;;13.53;61.81
8160;BME280;27404;52.398;9.646;2023-04-28T08:16:56;100597.34;;;13.72;61.63
8160;BME280;27404;52.398;9.646;2023-04-28T08:19:21;100591.13;;;13.82;59.96
8160;BME280;27404;52.398;9.646;2023-04-28T08:21:47;100598.44;;;13.99;60.47
8160;BME280;27404;52.398;9.646;2023-04-28T08:24:12;100597.25;;;13.89;61.78
8160;BME280;27404;52.398;9.646;2023-04-28T08:26:38;100599.13;;;13.61;61.39
8160;BME280;27404;52.398;9.646;2023-04-28T08:29:04;100593.63;;;13.84;61.19
8160;BME280;27404;52.398;9.646;2023-04-28T08:31:29;100590.59;;;13.85;62.66
8160;BME280;27404;52.398;9.646;2023-04-28T08:33:55;100596.66;;;13.60;61.86
8160;BME280;27404;52.398;9.646;2023-04-28T08:36:20;100592.75;;;13.56;63.00
8160;BME280;27404;52.398;9.646;2023-04-28T08:38:47;100589.75;;;13.80;62.89
8160;BME280;27404;52.398;9.646;2023-04-28T08:41:14;100584.53;;;13.83;62.48
8160;BME280;27404;52.398;9.646;2023-04-28T08:43:40;100585.66;;;13.60;63.28
8160;BME280;27404;52.398;9.646;2023-04-28T08:46:08;100593.13;;;13.87;61.84
8160;BME280;27404;52.398;9.646;2023-04-28T08:48:41;100581.78;;;13.83;62.49
8160;BME280;27404;52.398;9.646;2023-04-28T08:51:14;100581.84;;;13.61;62.97
8160;BME280;27404;52.398;9.646;2023-04-28T08:53:43;100587.69;;;13.97;62.64
8160;BME280;27404;52.398;9.646;2023-04-28T08:56:09;100587.91;;;13.90;61.59
8160;BME280;27404;52.398;9.646;2023-04-28T08:58:38;100596.38;;;14.44;61.82
8160;BME280;27404;52.398;9.646;2023-04-28T09:01:04;100587.50;;;14.36;60.25
8160;BME280;27404;52.398;9.646;2023-04-28T09:03:32;100577.66;;;14.08;60.54
8160;BME280;27404;52.398;9.646;2023-04-28T09:05:58;100570.63;;;13.95;63.01
8160;BME280;27404;52.398;9.646;2023-04-28T09:08:23;100571.66;;;13.84;61.24
8160;BME280;27404;52.398;9.646;2023-04-28T09:11:07;100567.88;;;13.68;64.05
8160;BME280;27404;52.398;9.646;2023-04-28T09:13:34;100571.28;;;13.30;63.58
8160;BME280;27404;52.398;9.646;2023-04-28T09:16:01;100567.63;;;13.42;64.58
8160;BME280;27404;52.398;9.646;2023-04-28T09:18:28;100563.69;;;13.60;64.63
8160;BME280;27404;52.398;9.646;2023-04-28T09:21:02;100563.41;;;13.84;64.86
8160;BME280;27404;52.398;9.646;2023-04-28T09:23:28;100556.25;;;13.55;63.84
8160;BME280;27404;52.398;9.646;2023-04-28T09:28:26;100545.00;;;13.35;65.70
8160;BME280;27404;52.398;9.646;2023-04-28T09:30:53;100538.56;;;13.24;67.43
8160;BME280;27404;52.398;9.646;2023-04-28T09:33:18;100544.03;;;13.24;66.13
8160;BME280;27404;52.398;9.646;2023-04-28T09:35:45;100553.03;;;13.41;65.51
8160;BME280;27404;52.398;9.646;2023-04-28T09:38:11;100547.31;;;13.70;65.15
8160;BME280;27404;52.398;9.646;2023-04-28T09:40:56;100548.59;;;13.62;64.70
8160;BME280;27404;52.398;9.646;2023-04-28T09:43:29;100546.66;;;13.85;65.88
8160;BME280;27404;52.398;9.646;2023-04-28T09:45:56;100544.88;;;14.01;65.94
8160;BME280;27404;52.398;9.646;2023-04-28T09:48:30;100546.56;;;14.07;63.68
8160;BME280;27404;52.398;9.646;2023-04-28T09:50:57;100552.78;;;14.25;63.80
8160;BME280;27404;52.398;9.646;2023-04-28T09:53:23;100551.75;;;14.36;62.86
8160;BME280;27404;52.398;9.646;2023-04-28T09:55:52;100545.13;;;14.32;63.23
8160;BME280;27404;52.398;9.646;2023-04-28T09:58:19;100543.84;;;14.45;64.04
8160;BME280;27404;52.398;9.646;2023-04-28T10:00:51;100547.53;;;14.24;63.74
8160;BME280;27404;52.398;9.646;2023-04-28T10:03:20;100540.44;;;14.00;64.99
8160;BME280;27404;52.398;9.646;2023-04-28T10:05:47;100544.59;;;13.70;64.86
8160;BME280;27404;52.398;9.646;2023-04-28T10:08:12;100546.25;;;13.71;66.93
8160;BME280;27404;52.398;9.646;2023-04-28T10:10:39;100542.25;;;13.84;66.65
8160;BME280;27404;52.398;9.646;2023-04-28T10:13:05;100543.69;;;13.65;67.54
8160;BME280;27404;52.398;9.646;2023-04-28T10:15:32;100540.06;;;13.59;68.02
8160;BME280;27404;52.398;9.646;2023-04-28T10:17:58;100539.56;;;13.62;68.95
8160;BME280;27404;52.398;9.646;2023-04-28T10:20:24;100544.00;;;13.68;69.52
8160;BME280;27404;52.398;9.646;2023-04-28T10:26:15;100530.13;;;14.13;67.44
8160;BME280;27404;52.398;9.646;2023-04-28T10:28:48;100526.63;;;14.65;67.57
8160;BME280;27404;52.398;9.646;2023-04-28T10:31:18;100529.03;;;14.94;65.00
8160;BME280;27404;52.398;9.646;2023-04-28T10:33:48;100531.72;;;14.84;66.11
8160;BME280;27404;52.398;9.646;2023-04-28T10:36:48;100529.97;;;15.21;64.15
8160;BME280;27404;52.398;9.646;2023-04-28T10:39:15;100534.31;;;15.06;67.91
8160;BME280;27404;52.398;9.646;2023-04-28T10:41:41;100532.28;;;15.50;67.95
8160;BME280;27404;52.398;9.646;2023-04-28T10:47:03;100523.00;;;15.87;71.33
8160;BME280;27404;52.398;9.646;2023-04-28T10:55:31;100513.34;;;16.05;68.63
8160;BME280;27404;52.398;9.646;2023-04-28T11:00:52;100510.78;;;15.42;70.71
8160;BME280;27404;52.398;9.646;2023-04-28T11:06:19;100511.16;;;16.33;65.54
8160;BME280;27404;52.398;9.646;2023-04-28T11:08:48;100499.53;;;16.47;66.71
8160;BME280;27404;52.398;9.646;2023-04-28T11:11:15;100497.91;;;16.14;66.08
8160;BME280;27404;52.398;9.646;2023-04-28T11:13:41;100489.59;;;16.51;65.40
8160;BME280;27404;52.398;9.646;2023-04-28T11:16:07;100485.06;;;16.91;64.32
8160;BME280;27404;52.398;9.646;2023-04-28T11:19:01;100480.56;;;15.98;64.39
8160;BME280;27404;52.398;9.646;2023-04-28T11:21:30;100480.50;;;15.78;65.52
8160;BME280;27404;52.398;9.646;2023-04-28T11:23:57;100476.69;;;15.89;67.57
8160;BME280;27404;52.398;9.646;2023-04-28T11:26:23;100485.75;;;15.74;66.29
8160;BME280;27404;52.398;9.646;2023-04-28T11:28:54;100479.44;;;15.89;66.11
8160;BME280;27404;52.398;9.646;2023-04-28T11:31:21;100478.28;;;15.75;66.46
8160;BME280;27404;52.398;9.646;2023-04-28T11:33:53;100471.72;;;16.12;66.34
8160;BME280;27404;52.398;9.646;2023-04-28T11:36:31;100475.03;;;16.09;65.97
8160;BME280;27404;52.398;9.646;2023-04-28T11:39:04;100474.75;;;15.84;65.33
8160;BME280;27404;52.398;9.646;2023-04-28T11:41:32;100471.72;;;15.96;67.36
8160;BME280;27404;52.398;9.646;2023-04-28T11:43:59;100482.47;;;15.93;66.04
8160;BME280;27404;52.398;9.646;2023-04-28T11:46:24;100480.75;;;15.55;69.28
8160;BME280;27404;52.398;9.646;2023-04-28T11:49:01;100478.84;;;15.51;71.43
8160;BME280;27404;52.398;9.646;2023-04-28T11:51:32;100470.84;;;15.60;68.57
8160;BME280;27404;52.398;9.646;2023-04-28T11:53:58;100478.84;;;15.51;68.97
8160;BME280;27404;52.398;9.646;2023-04-28T11:56:25;100479.91;;;15.39;70.36
8160;BME280;27404;52.398;9.646;2023-04-28T12:01:26;100463.03;;;15.10;71.23
8160;BME280;27404;52.398;9.646;2023-04-28T12:03:51;100476.91;;;14.72;73.52
8160;BME280;27404;52.398;9.646;2023-04-28T12:06:17;100477.50;;;14.79;72.28
8160;BME280;27404;52.398;9.646;2023-04-28T12:08:46;100479.53;;;15.00;73.54
8160;BME280;27404;52.398;9.646;2023-04-28T12:11:12;100480.94;;;15.18;74.16
8160;BME280;27404;52.398;9.646;2023-04-28T12:13:39;100475.53;;;14.75;73.57
8160;BME280;27404;52.398;9.646;2023-04-28T12:16:05;100470.84;;;14.70;75.38
8160;BME280;27404;52.398;9.646;2023-04-28T12:18:32;100468.69;;;14.77;75.83
8160;BME280;27404;52.398;9.646;2023-04-28T12:20:58;100461.56;;;14.92;75.81
8160;BME280;27404;52.398;9.646;2023-04-28T12:23:30;100461.75;;;14.70;82.13
8160;BME280;27404;52.398;9.646;2023-04-28T12:25:56;100463.22;;;14.93;83.35
8160;BME280;27404;52.398;9.646;2023-04-28T12:28:23;100449.44;;;14.77;83.26
8160;BME280;27404;52.398;9.646;2023-04-28T12:31:01;100452.84;;;15.10;81.63
8160;BME280;27404;52.398;9.646;2023-04-28T12:33:27;100434.69;;;15.20;81.76
8160;BME280;27404;52.398;9.646;2023-04-28T12:35:58;100433.59;;;15.16;81.05
8160;BME280;27404;52.398;9.646;2023-04-28T12:38:24;100439.16;;;15.67;81.57
8160;BME280;27404;52.398;9.646;2023-04-28T12:40:50;100433.94;;;15.66;79.43
8160;BME280;27404;52.398;9.646;2023-04-28T12:43:16;100433.34;;;15.43;79.61
8160;BME280;27404;52.398;9.646;2023-04-28T12:45:41;100440.25;;;15.35;79.96
8160;BME280;27404;52.398;9.646;2023-04-28T12:48:07;100430.75;;;14.95;83.43
8160;BME280;27404;52.398;9.646;2023-04-28T12:50:33;100437.88;;;14.80;83.28
8160;BME280;27404;52.398;9.646;2023-04-28T12:52:58;100436.50;;;14.78;84.32
8160;BME280;27404;52.398;9.646;2023-04-28T12:55:24;100442.84;;;14.78;84.97
8160;BME280;27404;52.398;9.646;2023-04-28T12:57:51;100441.63;;;14.64;86.10
8160;BME280;27404;52.398;9.646;2023-04-28T13:00:16;100446.81;;;14.55;84.11
8160;BME280;27404;52.398;9.646;2023-04-28T13:02:45;100437.66;;;14.44;86.82
8160;BME280;27404;52.398;9.646;2023-04-28T13:05:11;100425.94;;;14.64;85.66
8160;BME280;27404;52.398;9.646;2023-04-28T13:07:36;100426.03;;;14.80;87.41
8160;BME280;27404;52.398;9.646;2023-04-28T13:10:02;100414.53;;;14.93;84.66
8160;BME280;27404;52.398;9.646;2023-04-28T13:12:27;100416.44;;;14.88;85.24
8160;BME280;27404;52.398;9.646;2023-04-28T13:14:53;100413.97;;;14.86;85.49
8160;BME280;27404;52.398;9.646;2023-04-28T13:17:18;100414.00;;;14.97;82.96
8160;BME280;27404;52.398;9.646;2023-04-28T13:19:44;100415.50;;;14.66;82.68
8160;BME280;27404;52.398;9.646;2023-04-28T13:22:09;100412.59;;;14.84;84.12